sensor_id;sensor_type;location;lat;lon;timestamp;P1;durP1;ratioP1;P2;durP2;ratioP2
77955;SDS011;67152;36.266;32.294;2023-04-06T00:02:00;11.90;;;5.20;;
77955;SDS011;67152;36.266;32.294;2023-04-06T00:04:26;13.37;;;6.03;;
77955;SDS011;67152;36.266;32.294;2023-04-06T00:06:53;19.43;;;6.67;;
77955;SDS011;67152;36.266;32.294;2023-04-06T00:09:20;20.93;;;5.20;;
77955;SDS011;67152;36.266;32.294;2023-04-06T00:11:47;22.93;;;6.73;;
77955;SDS011;67152;36.266;32.294;2023-04-06T00:14:13;24.05;;;6.55;;
77955;SDS011;67152;36.266;32.294;2023-04-06T00:16:43;17.52;;;6.07;;
77955;SDS011;67152;36.266;32.294;2023-04-06T00:19:10;23.27;;;6.20;;
77955;SDS011;67152;36.266;32.294;2023-04-06T00:21:39;16.92;;;5.93;;
77955;SDS011;67152;36.266;32.294;2023-04-06T00:24:06;15.30;;;5.90;;
77955;SDS011;67152;36.266;32.294;2023-04-06T00:26:33;21.27;;;5.78;;
77955;SDS011;67152;36.266;32.294;2023-04-06T00:29:00;24.45;;;5.63;;
77955;SDS011;67152;36.266;32.294;2023-04-06T00:31:27;14.53;;;5.57;;
77955;SDS011;67152;36.266;32.294;2023-04-06T00:33:53;16.15;;;5.20;;
77955;SDS011;67152;36.266;32.294;2023-04-06T00:36:20;16.75;;;6.03;;
77955;SDS011;67152;36.266;32.294;2023-04-06T00:38:47;17.40;;;5.20;;
77955;SDS011;67152;36.266;32.294;2023-04-06T00:41:14;11.30;;;4.68;;
77955;SDS011;67152;36.266;32.294;2023-04-06T00:43:41;11.23;;;4.13;;
77955;SDS011;67152;36.266;32.294;2023-04-06T00:46:08;7.80;;;3.30;;
77955;SDS011;67152;36.266;32.294;2023-04-06T00:48:34;15.63;;;5.13;;
77955;SDS011;67152;36.266;32.294;2023-04-06T00:51:02;10.32;;;4.13;;
77955;SDS011;67152;36.266;32.294;2023-04-06T00:53:28;12.23;;;4.13;;
77955;SDS011;67152;36.266;32.294;2023-04-06T00:55:55;10.77;;;3.63;;
77955;SDS011;67152;36.266;32.294;2023-04-06T00:58:23;8.43;;;2.40;;
77955;SDS011;67152;36.266;32.294;2023-04-06T01:00:49;22.30;;;5.80;;
77955;SDS011;67152;36.266;32.294;2023-04-06T01:03:16;17.48;;;3.80;;
77955;SDS011;67152;36.266;32.294;2023-04-06T01:05:43;20.40;;;5.70;;
77955;SDS011;67152;36.266;32.294;2023-04-06T01:08:10;14.48;;;4.40;;
77955;SDS011;67152;36.266;32.294;2023-04-06T01:10:37;17.93;;;4.70;;
77955;SDS011;67152;36.266;32.294;2023-04-06T01:13:03;16.50;;;4.32;;
77955;SDS011;67152;36.266;32.294;2023-04-06T01:15:30;27.80;;;5.67;;
77955;SDS011;67152;36.266;32.294;2023-04-06T01:17:58;15.95;;;4.18;;
77955;SDS011;67152;36.266;32.294;2023-04-06T01:20:26;25.77;;;4.55;;
77955;SDS011;67152;36.266;32.294;2023-04-06T01:22:52;23.05;;;4.22;;
77955;SDS011;67152;36.266;32.294;2023-04-06T01:25:19;15.47;;;3.10;;
77955;SDS011;67152;36.266;32.294;2023-04-06T01:27:46;15.17;;;3.33;;
77955;SDS011;67152;36.266;32.294;2023-04-06T01:30:13;22.23;;;3.50;;
77955;SDS011;67152;36.266;32.294;2023-04-06T01:32:46;17.33;;;3.60;;
77955;SDS011;67152;36.266;32.294;2023-04-06T01:35:13;21.52;;;4.63;;
77955;SDS011;67152;36.266;32.294;2023-04-06T01:37:40;13.52;;;2.65;;
77955;SDS011;67152;36.266;32.294;2023-04-06T01:40:07;27.07;;;4.53;;
77955;SDS011;67152;36.266;32.294;2023-04-06T01:42:34;28.17;;;4.50;;
77955;SDS011;67152;36.266;32.294;2023-04-06T01:45:01;23.10;;;5.07;;
77955;SDS011;67152;36.266;32.294;2023-04-06T01:47:28;18.98;;;3.92;;
77955;SDS011;67152;36.266;32.294;2023-04-06T01:49:55;18.38;;;3.85;;
77955;SDS011;67152;36.266;32.294;2023-04-06T01:52:22;18.73;;;4.53;;
77955;SDS011;67152;36.266;32.294;2023-04-06T01:54:49;20.43;;;3.87;;
77955;SDS011;67152;36.266;32.294;2023-04-06T01:57:15;22.38;;;4.20;;
77955;SDS011;67152;36.266;32.294;2023-04-06T01:59:42;27.85;;;4.38;;
77955;SDS011;67152;36.266;32.294;2023-04-06T02:02:09;39.10;;;3.72;;
77955;SDS011;67152;36.266;32.294;2023-04-06T02:04:36;16.85;;;2.83;;
77955;SDS011;67152;36.266;32.294;2023-04-06T02:07:03;16.37;;;3.40;;
77955;SDS011;67152;36.266;32.294;2023-04-06T02:09:30;27.33;;;4.22;;
77955;SDS011;67152;36.266;32.294;2023-04-06T02:11:56;18.43;;;3.50;;
77955;SDS011;67152;36.266;32.294;2023-04-06T02:14:26;18.13;;;3.17;;
77955;SDS011;67152;36.266;32.294;2023-04-06T02:16:53;24.80;;;4.05;;
77955;SDS011;67152;36.266;32.294;2023-04-06T02:19:20;26.02;;;4.72;;
77955;SDS011;67152;36.266;32.294;2023-04-06T02:21:47;19.77;;;3.72;;
77955;SDS011;67152;36.266;32.294;2023-04-06T02:24:14;19.98;;;3.63;;
77955;SDS011;67152;36.266;32.294;2023-04-06T02:26:41;29.93;;;5.10;;
77955;SDS011;67152;36.266;32.294;2023-04-06T02:29:07;21.70;;;4.20;;
77955;SDS011;67152;36.266;32.294;2023-04-06T02:31:34;29.73;;;4.27;;
77955;SDS011;67152;36.266;32.294;2023-04-06T02:34:01;28.57;;;3.70;;
77955;SDS011;67152;36.266;32.294;2023-04-06T02:36:28;18.70;;;3.87;;
77955;SDS011;67152;36.266;32.294;2023-04-06T02:38:54;21.27;;;4.93;;
77955;SDS011;67152;36.266;32.294;2023-04-06T02:41:21;17.33;;;4.47;;
77955;SDS011;67152;36.266;32.294;2023-04-06T02:43:48;20.23;;;4.20;;
77955;SDS011;67152;36.266;32.294;2023-04-06T02:46:15;27.63;;;4.10;;
77955;SDS011;67152;36.266;32.294;2023-04-06T02:48:42;25.50;;;4.35;;
77955;SDS011;67152;36.266;32.294;2023-04-06T02:51:08;17.87;;;3.77;;
77955;SDS011;67152;36.266;32.294;2023-04-06T02:53:36;20.63;;;4.25;;
77955;SDS011;67152;36.266;32.294;2023-04-06T02:56:02;18.98;;;3.67;;
77955;SDS011;67152;36.266;32.294;2023-04-06T02:58:29;21.83;;;4.13;;
77955;SDS011;67152;36.266;32.294;2023-04-06T03:00:56;21.50;;;3.90;;
77955;SDS011;67152;36.266;32.294;2023-04-06T03:03:23;23.00;;;4.07;;
77955;SDS011;67152;36.266;32.294;2023-04-06T03:05:49;28.23;;;4.97;;
77955;SDS011;67152;36.266;32.294;2023-04-06T03:08:16;23.17;;;4.50;;
77955;SDS011;67152;36.266;32.294;2023-04-06T03:10:43;17.43;;;4.10;;
77955;SDS011;67152;36.266;32.294;2023-04-06T03:13:10;22.63;;;4.60;;
77955;SDS011;67152;36.266;32.294;2023-04-06T03:15:37;21.63;;;4.38;;
77955;SDS011;67152;36.266;32.294;2023-04-06T03:18:03;26.97;;;4.77;;
77955;SDS011;67152;36.266;32.294;2023-04-06T03:20:31;32.00;;;5.35;;
77955;SDS011;67152;36.266;32.294;2023-04-06T03:22:58;26.13;;;5.28;;
77955;SDS011;67152;36.266;32.294;2023-04-06T03:25:25;32.22;;;5.28;;
77955;SDS011;67152;36.266;32.294;2023-04-06T03:27:51;26.08;;;4.80;;
77955;SDS011;67152;36.266;32.294;2023-04-06T03:30:19;26.87;;;5.20;;
77955;SDS011;67152;36.266;32.294;2023-04-06T03:32:45;28.65;;;5.78;;
77955;SDS011;67152;36.266;32.294;2023-04-06T03:35:12;33.80;;;5.50;;
77955;SDS011;67152;36.266;32.294;2023-04-06T03:37:39;28.52;;;4.90;;
77955;SDS011;67152;36.266;32.294;2023-04-06T03:40:06;27.90;;;4.83;;
77955;SDS011;67152;36.266;32.294;2023-04-06T03:42:33;35.42;;;5.70;;
77955;SDS011;67152;36.266;32.294;2023-04-06T03:45:00;30.38;;;5.20;;
77955;SDS011;67152;36.266;32.294;2023-04-06T03:47:27;24.70;;;4.80;;
77955;SDS011;67152;36.266;32.294;2023-04-06T03:49:54;28.77;;;5.03;;
77955;SDS011;67152;36.266;32.294;2023-04-06T03:52:21;30.50;;;5.20;;
77955;SDS011;67152;36.266;32.294;2023-04-06T03:54:49;32.42;;;5.70;;
77955;SDS011;67152;36.266;32.294;2023-04-06T03:57:16;26.15;;;4.85;;
77955;SDS011;67152;36.266;32.294;2023-04-06T03:59:43;27.05;;;5.00;;
77955;SDS011;67152;36.266;32.294;2023-04-06T04:02:10;21.40;;;3.83;;
77955;SDS011;67152;36.266;32.294;2023-04-06T04:04:36;17.07;;;4.47;;
77955;SDS011;67152;36.266;32.294;2023-04-06T04:07:03;28.10;;;5.05;;
77955;SDS011;67152;36.266;32.294;2023-04-06T04:09:30;22.70;;;5.05;;
77955;SDS011;67152;36.266;32.294;2023-04-06T04:11:57;24.48;;;4.95;;
77955;SDS011;67152;36.266;32.294;2023-04-06T04:14:24;22.33;;;4.63;;
77955;SDS011;67152;36.266;32.294;2023-04-06T04:16:51;22.70;;;4.53;;
77955;SDS011;67152;36.266;32.294;2023-04-06T04:19:18;17.90;;;4.23;;
77955;SDS011;67152;36.266;32.294;2023-04-06T04:21:45;18.95;;;4.80;;
77955;SDS011;67152;36.266;32.294;2023-04-06T04:24:13;18.55;;;5.40;;
77955;SDS011;67152;36.266;32.294;2023-04-06T04:26:40;15.27;;;4.70;;
77955;SDS011;67152;36.266;32.294;2023-04-06T04:29:07;24.17;;;5.82;;
77955;SDS011;67152;36.266;32.294;2023-04-06T04:31:34;24.73;;;6.22;;
77955;SDS011;67152;36.266;32.294;2023-04-06T04:34:01;18.80;;;4.57;;
77955;SDS011;67152;36.266;32.294;2023-04-06T04:36:28;24.10;;;5.20;;
77955;SDS011;67152;36.266;32.294;2023-04-06T04:38:55;19.63;;;4.65;;
77955;SDS011;67152;36.266;32.294;2023-04-06T04:41:22;28.03;;;5.40;;
77955;SDS011;67152;36.266;32.294;2023-04-06T04:43:49;19.63;;;4.78;;
77955;SDS011;67152;36.266;32.294;2023-04-06T04:46:16;21.00;;;5.68;;
77955;SDS011;67152;36.266;32.294;2023-04-06T04:48:42;26.08;;;5.03;;
77955;SDS011;67152;36.266;32.294;2023-04-06T04:51:09;31.73;;;5.43;;
77955;SDS011;67152;36.266;32.294;2023-04-06T04:53:36;34.92;;;4.63;;
77955;SDS011;67152;36.266;32.294;2023-04-06T04:56:03;25.17;;;5.17;;
77955;SDS011;67152;36.266;32.294;2023-04-06T04:58:30;25.90;;;4.88;;
77955;SDS011;67152;36.266;32.294;2023-04-06T05:00:57;28.17;;;4.82;;
77955;SDS011;67152;36.266;32.294;2023-04-06T05:03:24;26.48;;;4.82;;
77955;SDS011;67152;36.266;32.294;2023-04-06T05:05:52;24.15;;;5.03;;
77955;SDS011;67152;36.266;32.294;2023-04-06T05:08:19;23.33;;;4.80;;
77955;SDS011;67152;36.266;32.294;2023-04-06T05:10:46;23.52;;;3.30;;
77955;SDS011;67152;36.266;32.294;2023-04-06T05:15:40;19.92;;;4.72;;
77955;SDS011;67152;36.266;32.294;2023-04-06T05:18:07;24.40;;;4.88;;
77955;SDS011;67152;36.266;32.294;2023-04-06T05:20:35;20.20;;;4.15;;
77955;SDS011;67152;36.266;32.294;2023-04-06T05:23:02;22.48;;;4.55;;
77955;SDS011;67152;36.266;32.294;2023-04-06T05:25:29;29.52;;;4.68;;
77955;SDS011;67152;36.266;32.294;2023-04-06T05:27:56;28.33;;;5.07;;
77955;SDS011;67152;36.266;32.294;2023-04-06T05:30:23;22.13;;;4.68;;
77955;SDS011;67152;36.266;32.294;2023-04-06T05:32:50;23.55;;;4.28;;
77955;SDS011;67152;36.266;32.294;2023-04-06T05:35:17;26.73;;;5.13;;
77955;SDS011;67152;36.266;32.294;2023-04-06T05:37:44;24.77;;;4.22;;
77955;SDS011;67152;36.266;32.294;2023-04-06T05:42:38;20.40;;;4.63;;
77955;SDS011;67152;36.266;32.294;2023-04-06T05:45:07;20.52;;;4.05;;
77955;SDS011;67152;36.266;32.294;2023-04-06T05:50:01;23.10;;;4.15;;
77955;SDS011;67152;36.266;32.294;2023-04-06T05:52:28;22.08;;;4.68;;
77955;SDS011;67152;36.266;32.294;2023-04-06T05:54:54;16.50;;;4.15;;
77955;SDS011;67152;36.266;32.294;2023-04-06T05:57:21;21.88;;;3.80;;
77955;SDS011;67152;36.266;32.294;2023-04-06T05:59:48;19.83;;;3.75;;
77955;SDS011;67152;36.266;32.294;2023-04-06T06:02:15;17.90;;;3.40;;
77955;SDS011;67152;36.266;32.294;2023-04-06T06:04:42;21.20;;;3.90;;
77955;SDS011;67152;36.266;32.294;2023-04-06T06:07:09;26.05;;;4.45;;
77955;SDS011;67152;36.266;32.294;2023-04-06T06:09:36;25.02;;;4.40;;
77955;SDS011;67152;36.266;32.294;2023-04-06T06:12:03;20.13;;;4.43;;
77955;SDS011;67152;36.266;32.294;2023-04-06T06:14:29;22.17;;;3.75;;
77955;SDS011;67152;36.266;32.294;2023-04-06T06:16:56;22.42;;;3.75;;
77955;SDS011;67152;36.266;32.294;2023-04-06T06:19:23;18.95;;;4.05;;
77955;SDS011;67152;36.266;32.294;2023-04-06T06:21:50;21.30;;;4.07;;
77955;SDS011;67152;36.266;32.294;2023-04-06T06:24:17;19.52;;;3.78;;
77955;SDS011;67152;36.266;32.294;2023-04-06T06:26:44;18.48;;;3.63;;
77955;SDS011;67152;36.266;32.294;2023-04-06T06:29:11;12.50;;;3.28;;
77955;SDS011;67152;36.266;32.294;2023-04-06T06:31:38;13.40;;;3.22;;
77955;SDS011;67152;36.266;32.294;2023-04-06T06:34:05;22.20;;;3.63;;
77955;SDS011;67152;36.266;32.294;2023-04-06T06:36:32;15.48;;;3.60;;
77955;SDS011;67152;36.266;32.294;2023-04-06T06:38:59;16.20;;;3.10;;
77955;SDS011;67152;36.266;32.294;2023-04-06T06:41:26;20.55;;;3.60;;
77955;SDS011;67152;36.266;32.294;2023-04-06T06:43:53;14.65;;;3.50;;
77955;SDS011;67152;36.266;32.294;2023-04-06T06:48:47;34.25;;;4.78;;
77955;SDS011;67152;36.266;32.294;2023-04-06T06:51:14;19.85;;;3.92;;
77955;SDS011;67152;36.266;32.294;2023-04-06T06:53:40;15.45;;;3.38;;
77955;SDS011;67152;36.266;32.294;2023-04-06T06:56:07;21.90;;;3.50;;
77955;SDS011;67152;36.266;32.294;2023-04-06T06:58:34;12.10;;;2.90;;
77955;SDS011;67152;36.266;32.294;2023-04-06T07:01:01;13.85;;;3.05;;
77955;SDS011;67152;36.266;32.294;2023-04-06T07:03:27;17.70;;;3.33;;
77955;SDS011;67152;36.266;32.294;2023-04-06T07:05:55;20.88;;;3.25;;
77955;SDS011;67152;36.266;32.294;2023-04-06T07:08:22;16.00;;;3.60;;
77955;SDS011;67152;36.266;32.294;2023-04-06T07:10:50;16.48;;;3.13;;
77955;SDS011;67152;36.266;32.294;2023-04-06T07:13:22;18.13;;;3.47;;
77955;SDS011;67152;36.266;32.294;2023-04-06T07:15:49;15.30;;;3.00;;
77955;SDS011;67152;36.266;32.294;2023-04-06T07:18:17;14.38;;;3.42;;
77955;SDS011;67152;36.266;32.294;2023-04-06T07:20:44;16.80;;;3.47;;
77955;SDS011;67152;36.266;32.294;2023-04-06T07:23:11;19.00;;;3.15;;
77955;SDS011;67152;36.266;32.294;2023-04-06T07:25:38;11.68;;;3.03;;
77955;SDS011;67152;36.266;32.294;2023-04-06T07:28:05;10.82;;;2.40;;
77955;SDS011;67152;36.266;32.294;2023-04-06T07:30:32;13.90;;;3.38;;
77955;SDS011;67152;36.266;32.294;2023-04-06T07:32:59;17.05;;;3.03;;
77955;SDS011;67152;36.266;32.294;2023-04-06T07:35:26;12.85;;;2.72;;
77955;SDS011;67152;36.266;32.294;2023-04-06T07:40:20;13.32;;;2.78;;
77955;SDS011;67152;36.266;32.294;2023-04-06T07:42:47;11.93;;;2.22;;
77955;SDS011;67152;36.266;32.294;2023-04-06T07:45:14;14.10;;;2.80;;
77955;SDS011;67152;36.266;32.294;2023-04-06T07:47:42;21.75;;;2.90;;
77955;SDS011;67152;36.266;32.294;2023-04-06T07:50:09;9.45;;;2.13;;
77955;SDS011;67152;36.266;32.294;2023-04-06T07:52:36;11.23;;;2.72;;
77955;SDS011;67152;36.266;32.294;2023-04-06T07:57:30;12.57;;;2.40;;
77955;SDS011;67152;36.266;32.294;2023-04-06T07:59:56;10.88;;;3.22;;
77955;SDS011;67152;36.266;32.294;2023-04-06T08:04:50;8.68;;;2.10;;
77955;SDS011;67152;36.266;32.294;2023-04-06T08:07:17;12.75;;;2.35;;
77955;SDS011;67152;36.266;32.294;2023-04-06T08:09:46;12.07;;;2.88;;
77955;SDS011;67152;36.266;32.294;2023-04-06T08:14:40;9.90;;;2.60;;
77955;SDS011;67152;36.266;32.294;2023-04-06T08:17:07;10.38;;;2.20;;
77955;SDS011;67152;36.266;32.294;2023-04-06T08:19:34;10.30;;;2.10;;
77955;SDS011;67152;36.266;32.294;2023-04-06T08:24:28;13.95;;;2.58;;
77955;SDS011;67152;36.266;32.294;2023-04-06T08:26:55;10.30;;;2.50;;
77955;SDS011;67152;36.266;32.294;2023-04-06T08:29:22;9.13;;;2.35;;
77955;SDS011;67152;36.266;32.294;2023-04-06T08:31:49;10.25;;;1.90;;
77955;SDS011;67152;36.266;32.294;2023-04-06T08:34:16;12.60;;;2.85;;
77955;SDS011;67152;36.266;32.294;2023-04-06T08:36:43;19.30;;;3.00;;
77955;SDS011;67152;36.266;32.294;2023-04-06T08:39:11;16.52;;;2.70;;
77955;SDS011;67152;36.266;32.294;2023-04-06T08:41:38;17.52;;;2.45;;
77955;SDS011;67152;36.266;32.294;2023-04-06T08:44:08;14.98;;;2.42;;
77955;SDS011;67152;36.266;32.294;2023-04-06T08:46:35;20.48;;;2.78;;
77955;SDS011;67152;36.266;32.294;2023-04-06T08:49:02;14.68;;;2.53;;
77955;SDS011;67152;36.266;32.294;2023-04-06T08:51:32;10.98;;;2.05;;
77955;SDS011;67152;36.266;32.294;2023-04-06T08:54:01;14.18;;;2.42;;
77955;SDS011;67152;36.266;32.294;2023-04-06T08:56:27;9.10;;;2.10;;
77955;SDS011;67152;36.266;32.294;2023-04-06T09:01:22;8.27;;;2.35;;
77955;SDS011;67152;36.266;32.294;2023-04-06T09:03:52;18.85;;;2.45;;
77955;SDS011;67152;36.266;32.294;2023-04-06T09:06:22;12.10;;;2.15;;
77955;SDS011;67152;36.266;32.294;2023-04-06T09:08:49;13.70;;;2.42;;
77955;SDS011;67152;36.266;32.294;2023-04-06T09:11:16;14.02;;;2.45;;
77955;SDS011;67152;36.266;32.294;2023-04-06T09:13:49;9.20;;;1.80;;
77955;SDS011;67152;36.266;32.294;2023-04-06T09:16:18;23.15;;;2.70;;
77955;SDS011;67152;36.266;32.294;2023-04-06T09:18:45;14.65;;;2.30;;
77955;SDS011;67152;36.266;32.294;2023-04-06T09:23:39;12.63;;;1.98;;
77955;SDS011;67152;36.266;32.294;2023-04-06T09:26:13;9.48;;;1.75;;
77955;SDS011;67152;36.266;32.294;2023-04-06T09:28:50;8.40;;;2.08;;
77955;SDS011;67152;36.266;32.294;2023-04-06T09:31:23;9.93;;;2.40;;
77955;SDS011;67152;36.266;32.294;2023-04-06T09:33:51;9.45;;;2.15;;
77955;SDS011;67152;36.266;32.294;2023-04-06T09:36:19;19.80;;;2.92;;
77955;SDS011;67152;36.266;32.294;2023-04-06T09:41:29;11.30;;;2.38;;
77955;SDS011;67152;36.266;32.294;2023-04-06T09:46:33;14.02;;;2.78;;
77955;SDS011;67152;36.266;32.294;2023-04-06T09:49:27;53.40;;;4.53;;
77955;SDS011;67152;36.266;32.294;2023-04-06T09:51:55;22.85;;;2.35;;
77955;SDS011;67152;36.266;32.294;2023-04-06T09:54:26;14.30;;;2.20;;
77955;SDS011;67152;36.266;32.294;2023-04-06T10:07:57;11.68;;;2.60;;
77955;SDS011;67152;36.266;32.294;2023-04-06T10:10:28;11.43;;;2.35;;
77955;SDS011;67152;36.266;32.294;2023-04-06T10:12:56;12.15;;;2.13;;
77955;SDS011;67152;36.266;32.294;2023-04-06T10:15:23;8.98;;;2.28;;
77955;SDS011;67152;36.266;32.294;2023-04-06T10:25:54;12.73;;;2.30;;
77955;SDS011;67152;36.266;32.294;2023-04-06T10:28:26;12.30;;;2.10;;
77955;SDS011;67152;36.266;32.294;2023-04-06T10:30:58;12.30;;;3.00;;
77955;SDS011;67152;36.266;32.294;2023-04-06T10:33:26;10.23;;;2.08;;
77955;SDS011;67152;36.266;32.294;2023-04-06T10:35:54;9.27;;;2.22;;
77955;SDS011;67152;36.266;32.294;2023-04-06T10:38:34;11.73;;;2.28;;
77955;SDS011;67152;36.266;32.294;2023-04-06T10:41:05;9.60;;;2.15;;
77955;SDS011;67152;36.266;32.294;2023-04-06T10:43:36;9.77;;;2.15;;
77955;SDS011;67152;36.266;32.294;2023-04-06T10:46:05;13.95;;;2.15;;
77955;SDS011;67152;36.266;32.294;2023-04-06T10:48:39;9.73;;;2.33;;
77955;SDS011;67152;36.266;32.294;2023-04-06T10:51:11;8.02;;;2.05;;
77955;SDS011;67152;36.266;32.294;2023-04-06T10:53:43;8.57;;;2.03;;
77955;SDS011;67152;36.266;32.294;2023-04-06T10:56:13;9.48;;;2.08;;
77955;SDS011;67152;36.266;32.294;2023-04-06T10:58:45;7.45;;;1.80;;
77955;SDS011;67152;36.266;32.294;2023-04-06T11:01:17;9.07;;;2.38;;
77955;SDS011;67152;36.266;32.294;2023-04-06T11:03:48;10.13;;;1.83;;
77955;SDS011;67152;36.266;32.294;2023-04-06T11:06:20;8.10;;;2.28;;
77955;SDS011;67152;36.266;32.294;2023-04-06T11:08:47;10.23;;;2.25;;
77955;SDS011;67152;36.266;32.294;2023-04-06T11:11:15;13.48;;;2.70;;
77955;SDS011;67152;36.266;32.294;2023-04-06T11:16:13;6.40;;;1.75;;
77955;SDS011;67152;36.266;32.294;2023-04-06T11:24:18;10.13;;;2.47;;
77955;SDS011;67152;36.266;32.294;2023-04-06T11:26:47;8.70;;;2.03;;
77955;SDS011;67152;36.266;32.294;2023-04-06T11:29:18;10.23;;;2.30;;
77955;SDS011;67152;36.266;32.294;2023-04-06T11:31:47;11.48;;;2.72;;
77955;SDS011;67152;36.266;32.294;2023-04-06T11:34:19;12.57;;;2.03;;
77955;SDS011;67152;36.266;32.294;2023-04-06T11:36:47;7.57;;;2.20;;
77955;SDS011;67152;36.266;32.294;2023-04-06T11:39:25;10.52;;;2.28;;
77955;SDS011;67152;36.266;32.294;2023-04-06T11:41:54;9.00;;;2.08;;
77955;SDS011;67152;36.266;32.294;2023-04-06T11:44:35;8.70;;;2.15;;
77955;SDS011;67152;36.266;32.294;2023-04-06T11:47:05;5.30;;;2.10;;
77955;SDS011;67152;36.266;32.294;2023-04-06T11:49:36;7.80;;;2.25;;
77955;SDS011;67152;36.266;32.294;2023-04-06T11:52:13;10.68;;;2.00;;
77955;SDS011;67152;36.266;32.294;2023-04-06T11:54:45;12.07;;;2.10;;
77955;SDS011;67152;36.266;32.294;2023-04-06T11:57:13;13.75;;;2.03;;
77955;SDS011;67152;36.266;32.294;2023-04-06T11:59:40;13.45;;;2.00;;
77955;SDS011;67152;36.266;32.294;2023-04-06T12:02:08;9.98;;;2.05;;
77955;SDS011;67152;36.266;32.294;2023-04-06T12:04:36;15.18;;;2.35;;
77955;SDS011;67152;36.266;32.294;2023-04-06T12:07:03;8.00;;;2.20;;
77955;SDS011;67152;36.266;32.294;2023-04-06T12:09:30;11.32;;;2.28;;
77955;SDS011;67152;36.266;32.294;2023-04-06T12:14:24;11.55;;;2.58;;
77955;SDS011;67152;36.266;32.294;2023-04-06T12:16:51;10.95;;;2.40;;
77955;SDS011;67152;36.266;32.294;2023-04-06T12:19:18;9.57;;;2.10;;
77955;SDS011;67152;36.266;32.294;2023-04-06T12:21:45;6.07;;;1.85;;
77955;SDS011;67152;36.266;32.294;2023-04-06T12:24:12;14.95;;;2.13;;
77955;SDS011;67152;36.266;32.294;2023-04-06T12:26:39;8.85;;;2.00;;
77955;SDS011;67152;36.266;32.294;2023-04-06T12:29:09;12.10;;;2.30;;
77955;SDS011;67152;36.266;32.294;2023-04-06T12:31:37;11.60;;;2.15;;
77955;SDS011;67152;36.266;32.294;2023-04-06T12:34:08;8.77;;;2.25;;
77955;SDS011;67152;36.266;32.294;2023-04-06T12:36:36;9.55;;;2.42;;
77955;SDS011;67152;36.266;32.294;2023-04-06T12:39:03;12.15;;;2.47;;
77955;SDS011;67152;36.266;32.294;2023-04-06T12:41:31;7.30;;;2.08;;
77955;SDS011;67152;36.266;32.294;2023-04-06T12:43:59;9.63;;;2.30;;
77955;SDS011;67152;36.266;32.294;2023-04-06T12:46:28;33.58;;;3.10;;
77955;SDS011;67152;36.266;32.294;2023-04-06T12:48:59;14.43;;;2.60;;
77955;SDS011;67152;36.266;32.294;2023-04-06T12:51:29;8.82;;;2.00;;
77955;SDS011;67152;36.266;32.294;2023-04-06T12:53:58;9.05;;;2.22;;
77955;SDS011;67152;36.266;32.294;2023-04-06T12:56:25;10.18;;;2.60;;
77955;SDS011;67152;36.266;32.294;2023-04-06T12:59:11;9.60;;;2.33;;
77955;SDS011;67152;36.266;32.294;2023-04-06T13:01:38;11.50;;;2.40;;
77955;SDS011;67152;36.266;32.294;2023-04-06T13:04:05;14.63;;;2.45;;
77955;SDS011;67152;36.266;32.294;2023-04-06T13:06:32;14.45;;;2.50;;
77955;SDS011;67152;36.266;32.294;2023-04-06T13:08:59;9.60;;;2.33;;
77955;SDS011;67152;36.266;32.294;2023-04-06T13:11:26;15.15;;;2.83;;
77955;SDS011;67152;36.266;32.294;2023-04-06T13:13:53;9.55;;;2.35;;
77955;SDS011;67152;36.266;32.294;2023-04-06T13:16:20;10.23;;;2.25;;
77955;SDS011;67152;36.266;32.294;2023-04-06T13:18:47;18.23;;;2.70;;
77955;SDS011;67152;36.266;32.294;2023-04-06T13:21:14;18.63;;;2.80;;
77955;SDS011;67152;36.266;32.294;2023-04-06T13:23:42;12.88;;;2.25;;
77955;SDS011;67152;36.266;32.294;2023-04-06T13:26:09;20.48;;;3.90;;
77955;SDS011;67152;36.266;32.294;2023-04-06T13:28:36;12.30;;;2.63;;
77955;SDS011;67152;36.266;32.294;2023-04-06T13:31:23;13.05;;;3.00;;
77955;SDS011;67152;36.266;32.294;2023-04-06T13:33:50;6.38;;;1.95;;
77955;SDS011;67152;36.266;32.294;2023-04-06T13:36:17;13.30;;;2.65;;
77955;SDS011;67152;36.266;32.294;2023-04-06T13:38:44;21.02;;;2.58;;
77955;SDS011;67152;36.266;32.294;2023-04-06T13:41:18;19.55;;;2.70;;
77955;SDS011;67152;36.266;32.294;2023-04-06T13:43:49;12.15;;;2.70;;
77955;SDS011;67152;36.266;32.294;2023-04-06T13:46:16;9.07;;;2.13;;
77955;SDS011;67152;36.266;32.294;2023-04-06T13:48:43;13.82;;;2.58;;
77955;SDS011;67152;36.266;32.294;2023-04-06T13:51:11;11.38;;;2.40;;
77955;SDS011;67152;36.266;32.294;2023-04-06T13:53:39;15.60;;;3.05;;
77955;SDS011;67152;36.266;32.294;2023-04-06T13:56:06;11.43;;;2.47;;
77955;SDS011;67152;36.266;32.294;2023-04-06T13:58:34;9.45;;;2.45;;
77955;SDS011;67152;36.266;32.294;2023-04-06T14:01:05;11.75;;;2.78;;
77955;SDS011;67152;36.266;32.294;2023-04-06T14:03:33;11.52;;;2.28;;
77955;SDS011;67152;36.266;32.294;2023-04-06T14:06:00;12.05;;;2.60;;
77955;SDS011;67152;36.266;32.294;2023-04-06T14:08:27;13.57;;;3.13;;
77955;SDS011;67152;36.266;32.294;2023-04-06T14:10:54;7.90;;;2.35;;
77955;SDS011;67152;36.266;32.294;2023-04-06T14:13:22;14.68;;;3.20;;
77955;SDS011;67152;36.266;32.294;2023-04-06T14:15:52;14.77;;;2.60;;
77955;SDS011;67152;36.266;32.294;2023-04-06T14:18:20;13.30;;;2.83;;
77955;SDS011;67152;36.266;32.294;2023-04-06T14:20:54;15.75;;;4.00;;
77955;SDS011;67152;36.266;32.294;2023-04-06T14:23:22;17.42;;;3.05;;
77955;SDS011;67152;36.266;32.294;2023-04-06T14:25:49;6.82;;;2.40;;
77955;SDS011;67152;36.266;32.294;2023-04-06T14:28:16;8.35;;;2.72;;
77955;SDS011;67152;36.266;32.294;2023-04-06T14:30:43;14.30;;;3.47;;
77955;SDS011;67152;36.266;32.294;2023-04-06T14:33:10;17.65;;;3.80;;
77955;SDS011;67152;36.266;32.294;2023-04-06T14:35:40;11.05;;;2.88;;
77955;SDS011;67152;36.266;32.294;2023-04-06T14:38:07;14.77;;;3.50;;
77955;SDS011;67152;36.266;32.294;2023-04-06T14:40:35;11.15;;;3.72;;
77955;SDS011;67152;36.266;32.294;2023-04-06T14:43:03;36.33;;;4.90;;
77955;SDS011;67152;36.266;32.294;2023-04-06T14:45:32;20.65;;;3.88;;
77955;SDS011;67152;36.266;32.294;2023-04-06T14:48:00;11.13;;;2.88;;
77955;SDS011;67152;36.266;32.294;2023-04-06T14:50:28;13.95;;;3.80;;
77955;SDS011;67152;36.266;32.294;2023-04-06T14:53:11;17.42;;;4.15;;
77955;SDS011;67152;36.266;32.294;2023-04-06T14:55:39;10.43;;;3.88;;
77955;SDS011;67152;36.266;32.294;2023-04-06T14:58:10;19.48;;;4.45;;
77955;SDS011;67152;36.266;32.294;2023-04-06T15:03:24;18.77;;;4.55;;
77955;SDS011;67152;36.266;32.294;2023-04-06T15:06:14;16.08;;;4.10;;
77955;SDS011;67152;36.266;32.294;2023-04-06T15:08:42;13.23;;;3.10;;
77955;SDS011;67152;36.266;32.294;2023-04-06T15:11:10;13.20;;;3.90;;
77955;SDS011;67152;36.266;32.294;2023-04-06T15:13:37;18.90;;;4.13;;
77955;SDS011;67152;36.266;32.294;2023-04-06T15:16:06;12.95;;;3.72;;
77955;SDS011;67152;36.266;32.294;2023-04-06T15:18:33;16.98;;;5.88;;
77955;SDS011;67152;36.266;32.294;2023-04-06T15:21:01;24.05;;;9.25;;
77955;SDS011;67152;36.266;32.294;2023-04-06T15:23:28;24.17;;;7.57;;
77955;SDS011;67152;36.266;32.294;2023-04-06T15:30:49;29.92;;;14.13;;
77955;SDS011;67152;36.266;32.294;2023-04-06T15:33:36;29.00;;;10.02;;
77955;SDS011;67152;36.266;32.294;2023-04-06T15:36:05;28.80;;;12.90;;
77955;SDS011;67152;36.266;32.294;2023-04-06T15:38:35;25.05;;;11.70;;